sensor_id;sensor_type;location;lat;lon;timestamp;P1;durP1;ratioP1;P2;durP2;ratioP2
3547;SDS011;1788;49.400;11.092;2023-03-03T00:00:53;26.70;;;14.93;;
3547;SDS011;1788;49.400;11.092;2023-03-03T00:03:21;24.43;;;14.20;;
3547;SDS011;1788;49.400;11.092;2023-03-03T00:05:48;29.83;;;15.33;;
3547;SDS011;1788;49.400;11.092;2023-03-03T00:08:15;22.60;;;13.67;;
3547;SDS011;1788;49.400;11.092;2023-03-03T00:10:42;25.87;;;15.93;;
3547;SDS011;1788;49.400;11.092;2023-03-03T00:13:12;24.13;;;14.07;;
3547;SDS011;1788;49.400;11.092;2023-03-03T00:15:36;24.90;;;13.67;;
3547;SDS011;1788;49.400;11.092;2023-03-03T00:18:05;29.10;;;14.93;;
3547;SDS011;1788;49.400;11.092;2023-03-03T00:22:57;25.50;;;14.77;;
3547;SDS011;1788;49.400;11.092;2023-03-03T00:27:50;27.50;;;16.33;;
3547;SDS011;1788;49.400;11.092;2023-03-03T00:30:19;29.37;;;17.10;;
3547;SDS011;1788;49.400;11.092;2023-03-03T00:32:44;24.53;;;15.63;;
3547;SDS011;1788;49.400;11.092;2023-03-03T00:37:37;28.47;;;16.37;;
3547;SDS011;1788;49.400;11.092;2023-03-03T00:42:31;29.27;;;17.00;;
3547;SDS011;1788;49.400;11.092;2023-03-03T00:44:59;26.27;;;14.93;;
3547;SDS011;1788;49.400;11.092;2023-03-03T00:49:53;32.73;;;17.40;;
3547;SDS011;1788;49.400;11.092;2023-03-03T00:52:19;38.03;;;17.00;;
3547;SDS011;1788;49.400;11.092;2023-03-03T00:54:46;28.10;;;16.80;;
3547;SDS011;1788;49.400;11.092;2023-03-03T00:57:12;30.87;;;17.27;;
3547;SDS011;1788;49.400;11.092;2023-03-03T00:59:39;31.97;;;17.20;;
3547;SDS011;1788;49.400;11.092;2023-03-03T01:02:06;31.13;;;16.90;;
3547;SDS011;1788;49.400;11.092;2023-03-03T01:04:33;30.20;;;17.43;;
3547;SDS011;1788;49.400;11.092;2023-03-03T01:07:00;37.20;;;18.57;;
3547;SDS011;1788;49.400;11.092;2023-03-03T01:09:27;26.90;;;16.00;;
3547;SDS011;1788;49.400;11.092;2023-03-03T01:11:54;39.87;;;17.53;;
3547;SDS011;1788;49.400;11.092;2023-03-03T01:14:21;26.20;;;15.97;;
3547;SDS011;1788;49.400;11.092;2023-03-03T01:16:47;25.73;;;14.97;;
3547;SDS011;1788;49.400;11.092;2023-03-03T01:19:14;27.60;;;15.07;;
3547;SDS011;1788;49.400;11.092;2023-03-03T01:21:41;30.87;;;16.27;;
3547;SDS011;1788;49.400;11.092;2023-03-03T01:24:08;36.03;;;17.13;;
3547;SDS011;1788;49.400;11.092;2023-03-03T01:26:34;35.17;;;17.83;;
3547;SDS011;1788;49.400;11.092;2023-03-03T01:29:01;30.67;;;16.47;;
3547;SDS011;1788;49.400;11.092;2023-03-03T01:31:28;32.43;;;17.40;;
3547;SDS011;1788;49.400;11.092;2023-03-03T01:33:54;29.03;;;16.13;;
3547;SDS011;1788;49.400;11.092;2023-03-03T01:36:21;34.17;;;17.87;;
3547;SDS011;1788;49.400;11.092;2023-03-03T01:38:48;25.27;;;15.87;;
3547;SDS011;1788;49.400;11.092;2023-03-03T01:41:15;34.37;;;18.70;;
3547;SDS011;1788;49.400;11.092;2023-03-03T01:43:43;38.33;;;17.10;;
3547;SDS011;1788;49.400;11.092;2023-03-03T01:48:36;34.13;;;16.83;;
3547;SDS011;1788;49.400;11.092;2023-03-03T01:51:03;31.53;;;16.67;;
3547;SDS011;1788;49.400;11.092;2023-03-03T01:55:55;28.83;;;16.30;;
3547;SDS011;1788;49.400;11.092;2023-03-03T02:00:50;26.33;;;15.07;;
3547;SDS011;1788;49.400;11.092;2023-03-03T02:03:16;32.40;;;16.53;;
3547;SDS011;1788;49.400;11.092;2023-03-03T02:05:43;29.60;;;15.07;;
3547;SDS011;1788;49.400;11.092;2023-03-03T02:08:09;32.17;;;15.83;;
3547;SDS011;1788;49.400;11.092;2023-03-03T02:10:36;27.60;;;14.27;;
3547;SDS011;1788;49.400;11.092;2023-03-03T02:13:03;27.77;;;15.27;;
3547;SDS011;1788;49.400;11.092;2023-03-03T02:15:30;29.93;;;15.13;;
3547;SDS011;1788;49.400;11.092;2023-03-03T02:17:58;31.57;;;16.20;;
3547;SDS011;1788;49.400;11.092;2023-03-03T02:22:52;23.37;;;14.53;;
3547;SDS011;1788;49.400;11.092;2023-03-03T02:27:44;29.00;;;15.80;;
3547;SDS011;1788;49.400;11.092;2023-03-03T02:32:37;32.10;;;14.80;;
3547;SDS011;1788;49.400;11.092;2023-03-03T02:37:32;29.43;;;14.40;;
3547;SDS011;1788;49.400;11.092;2023-03-03T02:39:59;25.37;;;14.10;;
3547;SDS011;1788;49.400;11.092;2023-03-03T02:42:26;26.40;;;15.53;;
3547;SDS011;1788;49.400;11.092;2023-03-03T02:44:53;26.77;;;13.93;;
3547;SDS011;1788;49.400;11.092;2023-03-03T02:47:19;20.77;;;13.73;;
3547;SDS011;1788;49.400;11.092;2023-03-03T02:49:46;24.63;;;15.03;;
3547;SDS011;1788;49.400;11.092;2023-03-03T02:52:14;20.73;;;14.07;;
3547;SDS011;1788;49.400;11.092;2023-03-03T02:54:41;31.97;;;15.77;;
3547;SDS011;1788;49.400;11.092;2023-03-03T02:57:08;30.77;;;15.63;;
3547;SDS011;1788;49.400;11.092;2023-03-03T02:59:35;29.00;;;15.20;;
3547;SDS011;1788;49.400;11.092;2023-03-03T03:02:02;30.97;;;15.60;;
3547;SDS011;1788;49.400;11.092;2023-03-03T03:04:29;26.53;;;15.33;;
3547;SDS011;1788;49.400;11.092;2023-03-03T03:06:56;29.87;;;16.60;;
3547;SDS011;1788;49.400;11.092;2023-03-03T03:09:23;27.23;;;15.23;;
3547;SDS011;1788;49.400;11.092;2023-03-03T03:11:49;28.60;;;15.57;;
3547;SDS011;1788;49.400;11.092;2023-03-03T03:14:16;29.93;;;15.03;;
3547;SDS011;1788;49.400;11.092;2023-03-03T03:16:42;31.20;;;16.27;;
3547;SDS011;1788;49.400;11.092;2023-03-03T03:19:10;26.00;;;15.43;;
3547;SDS011;1788;49.400;11.092;2023-03-03T03:21:36;25.50;;;15.77;;
3547;SDS011;1788;49.400;11.092;2023-03-03T03:24:04;26.93;;;16.63;;
3547;SDS011;1788;49.400;11.092;2023-03-03T03:26:30;29.37;;;16.27;;
3547;SDS011;1788;49.400;11.092;2023-03-03T03:28:57;29.07;;;15.90;;
3547;SDS011;1788;49.400;11.092;2023-03-03T03:31:24;32.20;;;16.23;;
3547;SDS011;1788;49.400;11.092;2023-03-03T03:33:50;31.93;;;16.43;;
3547;SDS011;1788;49.400;11.092;2023-03-03T03:36:17;25.40;;;15.53;;
3547;SDS011;1788;49.400;11.092;2023-03-03T03:38:44;30.93;;;15.67;;
3547;SDS011;1788;49.400;11.092;2023-03-03T03:41:11;33.10;;;18.00;;
3547;SDS011;1788;49.400;11.092;2023-03-03T03:43:38;31.87;;;18.43;;
3547;SDS011;1788;49.400;11.092;2023-03-03T03:46:05;33.00;;;18.13;;
3547;SDS011;1788;49.400;11.092;2023-03-03T03:48:31;38.60;;;18.80;;
3547;SDS011;1788;49.400;11.092;2023-03-03T03:50:58;33.80;;;17.20;;
3547;SDS011;1788;49.400;11.092;2023-03-03T03:53:25;29.00;;;16.07;;
3547;SDS011;1788;49.400;11.092;2023-03-03T03:55:52;31.60;;;17.50;;
3547;SDS011;1788;49.400;11.092;2023-03-03T03:58:19;29.10;;;15.70;;
3547;SDS011;1788;49.400;11.092;2023-03-03T04:00:46;30.33;;;16.67;;
3547;SDS011;1788;49.400;11.092;2023-03-03T04:03:13;30.20;;;16.37;;
3547;SDS011;1788;49.400;11.092;2023-03-03T04:05:39;29.80;;;15.37;;
3547;SDS011;1788;49.400;11.092;2023-03-03T04:08:06;32.23;;;16.27;;
3547;SDS011;1788;49.400;11.092;2023-03-03T04:10:33;40.87;;;21.23;;
3547;SDS011;1788;49.400;11.092;2023-03-03T04:12:59;38.27;;;17.47;;
3547;SDS011;1788;49.400;11.092;2023-03-03T04:15:26;29.93;;;16.13;;
3547;SDS011;1788;49.400;11.092;2023-03-03T04:17:52;31.90;;;16.00;;
3547;SDS011;1788;49.400;11.092;2023-03-03T04:20:19;30.80;;;16.30;;
3547;SDS011;1788;49.400;11.092;2023-03-03T04:22:46;30.87;;;15.80;;
3547;SDS011;1788;49.400;11.092;2023-03-03T04:25:13;28.70;;;15.80;;
3547;SDS011;1788;49.400;11.092;2023-03-03T04:27:40;32.20;;;16.93;;
3547;SDS011;1788;49.400;11.092;2023-03-03T04:30:07;31.87;;;15.90;;
3547;SDS011;1788;49.400;11.092;2023-03-03T04:32:33;34.93;;;16.93;;
3547;SDS011;1788;49.400;11.092;2023-03-03T04:35:00;29.90;;;16.70;;
3547;SDS011;1788;49.400;11.092;2023-03-03T04:37:27;29.40;;;17.23;;
3547;SDS011;1788;49.400;11.092;2023-03-03T04:39:53;33.50;;;18.80;;
3547;SDS011;1788;49.400;11.092;2023-03-03T04:42:20;34.53;;;18.97;;
3547;SDS011;1788;49.400;11.092;2023-03-03T04:44:46;35.73;;;17.97;;
3547;SDS011;1788;49.400;11.092;2023-03-03T04:47:13;32.30;;;16.07;;
3547;SDS011;1788;49.400;11.092;2023-03-03T04:49:41;35.93;;;18.00;;
3547;SDS011;1788;49.400;11.092;2023-03-03T04:52:08;31.43;;;16.53;;
3547;SDS011;1788;49.400;11.092;2023-03-03T04:54:34;35.00;;;17.33;;
3547;SDS011;1788;49.400;11.092;2023-03-03T04:57:01;28.30;;;13.03;;
3547;SDS011;1788;49.400;11.092;2023-03-03T04:59:29;27.50;;;15.70;;
3547;SDS011;1788;49.400;11.092;2023-03-03T05:02:02;30.97;;;16.77;;
3547;SDS011;1788;49.400;11.092;2023-03-03T05:04:30;28.30;;;14.93;;
3547;SDS011;1788;49.400;11.092;2023-03-03T05:06:57;30.10;;;16.97;;
3547;SDS011;1788;49.400;11.092;2023-03-03T05:09:23;21.27;;;12.07;;
3547;SDS011;1788;49.400;11.092;2023-03-03T05:11:50;29.00;;;13.93;;
3547;SDS011;1788;49.400;11.092;2023-03-03T05:14:18;34.63;;;17.93;;
3547;SDS011;1788;49.400;11.092;2023-03-03T05:16:44;36.87;;;17.47;;
3547;SDS011;1788;49.400;11.092;2023-03-03T05:19:11;37.77;;;18.90;;
3547;SDS011;1788;49.400;11.092;2023-03-03T05:21:38;34.53;;;17.57;;
3547;SDS011;1788;49.400;11.092;2023-03-03T05:24:04;28.30;;;14.70;;
3547;SDS011;1788;49.400;11.092;2023-03-03T05:26:32;29.37;;;14.77;;
3547;SDS011;1788;49.400;11.092;2023-03-03T05:28:58;29.97;;;15.63;;
3547;SDS011;1788;49.400;11.092;2023-03-03T05:31:26;30.33;;;15.57;;
3547;SDS011;1788;49.400;11.092;2023-03-03T05:33:53;25.07;;;12.30;;
3547;SDS011;1788;49.400;11.092;2023-03-03T05:36:20;27.03;;;14.70;;
3547;SDS011;1788;49.400;11.092;2023-03-03T05:38:46;32.87;;;17.50;;
3547;SDS011;1788;49.400;11.092;2023-03-03T05:41:13;29.60;;;16.03;;
3547;SDS011;1788;49.400;11.092;2023-03-03T05:43:40;29.20;;;17.37;;
3547;SDS011;1788;49.400;11.092;2023-03-03T05:46:06;31.30;;;18.23;;
3547;SDS011;1788;49.400;11.092;2023-03-03T05:48:33;37.47;;;17.40;;
3547;SDS011;1788;49.400;11.092;2023-03-03T05:51:00;28.23;;;16.83;;
3547;SDS011;1788;49.400;11.092;2023-03-03T05:53:27;36.37;;;16.77;;
3547;SDS011;1788;49.400;11.092;2023-03-03T05:55:55;30.43;;;16.20;;
3547;SDS011;1788;49.400;11.092;2023-03-03T05:58:22;32.43;;;16.03;;
3547;SDS011;1788;49.400;11.092;2023-03-03T06:00:48;22.77;;;11.80;;
3547;SDS011;1788;49.400;11.092;2023-03-03T06:03:16;29.93;;;16.20;;
3547;SDS011;1788;49.400;11.092;2023-03-03T06:05:44;28.23;;;15.87;;
3547;SDS011;1788;49.400;11.092;2023-03-03T06:08:10;28.97;;;15.70;;
3547;SDS011;1788;49.400;11.092;2023-03-03T06:10:38;28.87;;;16.50;;
3547;SDS011;1788;49.400;11.092;2023-03-03T06:13:04;31.53;;;16.17;;
3547;SDS011;1788;49.400;11.092;2023-03-03T06:15:31;24.60;;;14.07;;
3547;SDS011;1788;49.400;11.092;2023-03-03T06:17:58;31.20;;;15.27;;
3547;SDS011;1788;49.400;11.092;2023-03-03T06:20:24;31.73;;;17.23;;
3547;SDS011;1788;49.400;11.092;2023-03-03T06:22:53;29.90;;;17.83;;
3547;SDS011;1788;49.400;11.092;2023-03-03T06:25:21;37.63;;;19.47;;
3547;SDS011;1788;49.400;11.092;2023-03-03T06:27:47;26.47;;;14.47;;
3547;SDS011;1788;49.400;11.092;2023-03-03T06:30:15;36.50;;;19.50;;
3547;SDS011;1788;49.400;11.092;2023-03-03T06:32:41;32.73;;;18.20;;
3547;SDS011;1788;49.400;11.092;2023-03-03T06:35:09;38.33;;;19.23;;
3547;SDS011;1788;49.400;11.092;2023-03-03T06:37:35;33.43;;;17.47;;
3547;SDS011;1788;49.400;11.092;2023-03-03T06:40:02;32.80;;;17.30;;
3547;SDS011;1788;49.400;11.092;2023-03-03T06:42:28;46.63;;;24.93;;
3547;SDS011;1788;49.400;11.092;2023-03-03T06:44:55;53.10;;;26.67;;
3547;SDS011;1788;49.400;11.092;2023-03-03T06:47:22;45.00;;;22.93;;
3547;SDS011;1788;49.400;11.092;2023-03-03T06:49:49;40.53;;;23.97;;
3547;SDS011;1788;49.400;11.092;2023-03-03T06:54:42;52.33;;;25.80;;
3547;SDS011;1788;49.400;11.092;2023-03-03T06:59:36;44.90;;;24.60;;
3547;SDS011;1788;49.400;11.092;2023-03-03T07:02:03;39.43;;;21.40;;
3547;SDS011;1788;49.400;11.092;2023-03-03T07:04:32;42.70;;;21.10;;
3547;SDS011;1788;49.400;11.092;2023-03-03T07:09:26;35.80;;;21.37;;
3547;SDS011;1788;49.400;11.092;2023-03-03T07:11:53;50.17;;;23.93;;
3547;SDS011;1788;49.400;11.092;2023-03-03T07:14:18;48.47;;;24.50;;
3547;SDS011;1788;49.400;11.092;2023-03-03T07:16:45;45.20;;;22.73;;
3547;SDS011;1788;49.400;11.092;2023-03-03T07:21:39;48.90;;;25.57;;
3547;SDS011;1788;49.400;11.092;2023-03-03T07:26:31;55.63;;;26.70;;
3547;SDS011;1788;49.400;11.092;2023-03-03T07:31:28;48.00;;;24.77;;
3547;SDS011;1788;49.400;11.092;2023-03-03T07:33:51;47.60;;;24.13;;
3547;SDS011;1788;49.400;11.092;2023-03-03T07:38:47;44.13;;;22.87;;
3547;SDS011;1788;49.400;11.092;2023-03-03T07:41:13;41.13;;;21.63;;
3547;SDS011;1788;49.400;11.092;2023-03-03T07:43:39;47.30;;;22.43;;
3547;SDS011;1788;49.400;11.092;2023-03-03T07:48:34;45.43;;;22.30;;
3547;SDS011;1788;49.400;11.092;2023-03-03T07:51:01;40.77;;;20.23;;
3547;SDS011;1788;49.400;11.092;2023-03-03T07:53:28;46.53;;;21.47;;
3547;SDS011;1788;49.400;11.092;2023-03-03T07:55:53;43.17;;;21.30;;
3547;SDS011;1788;49.400;11.092;2023-03-03T07:58:21;42.03;;;19.57;;
3547;SDS011;1788;49.400;11.092;2023-03-03T08:03:15;48.43;;;22.07;;
3547;SDS011;1788;49.400;11.092;2023-03-03T08:05:42;48.87;;;22.17;;
3547;SDS011;1788;49.400;11.092;2023-03-03T08:08:11;45.97;;;22.00;;
3547;SDS011;1788;49.400;11.092;2023-03-03T08:10:35;48.83;;;21.93;;
3547;SDS011;1788;49.400;11.092;2023-03-03T08:13:08;44.70;;;20.30;;
3547;SDS011;1788;49.400;11.092;2023-03-03T08:15:30;44.87;;;21.10;;
3547;SDS011;1788;49.400;11.092;2023-03-03T08:17:55;44.77;;;21.93;;
3547;SDS011;1788;49.400;11.092;2023-03-03T08:22:48;42.40;;;21.13;;
3547;SDS011;1788;49.400;11.092;2023-03-03T08:25:14;54.73;;;21.93;;
3547;SDS011;1788;49.400;11.092;2023-03-03T08:27:41;49.40;;;22.23;;
3547;SDS011;1788;49.400;11.092;2023-03-03T08:32:34;46.13;;;21.37;;
3547;SDS011;1788;49.400;11.092;2023-03-03T08:35:01;47.07;;;21.80;;
3547;SDS011;1788;49.400;11.092;2023-03-03T08:37:27;49.73;;;22.03;;
3547;SDS011;1788;49.400;11.092;2023-03-03T08:39:55;47.03;;;21.90;;
3547;SDS011;1788;49.400;11.092;2023-03-03T08:42:21;40.27;;;21.57;;
3547;SDS011;1788;49.400;11.092;2023-03-03T08:44:48;41.87;;;20.43;;
3547;SDS011;1788;49.400;11.092;2023-03-03T08:47:15;44.80;;;20.47;;
3547;SDS011;1788;49.400;11.092;2023-03-03T08:49:41;41.73;;;20.87;;
3547;SDS011;1788;49.400;11.092;2023-03-03T08:52:08;42.40;;;19.97;;
3547;SDS011;1788;49.400;11.092;2023-03-03T08:54:35;40.93;;;20.03;;
3547;SDS011;1788;49.400;11.092;2023-03-03T08:57:01;38.87;;;19.60;;
3547;SDS011;1788;49.400;11.092;2023-03-03T08:59:28;39.47;;;19.70;;
3547;SDS011;1788;49.400;11.092;2023-03-03T09:01:55;39.13;;;19.67;;
3547;SDS011;1788;49.400;11.092;2023-03-03T09:04:22;39.27;;;21.20;;
3547;SDS011;1788;49.400;11.092;2023-03-03T09:06:49;43.33;;;22.17;;
3547;SDS011;1788;49.400;11.092;2023-03-03T09:09:16;46.37;;;21.67;;
3547;SDS011;1788;49.400;11.092;2023-03-03T09:11:42;44.93;;;21.63;;
3547;SDS011;1788;49.400;11.092;2023-03-03T09:14:10;41.13;;;19.40;;
3547;SDS011;1788;49.400;11.092;2023-03-03T09:16:38;41.57;;;21.53;;
3547;SDS011;1788;49.400;11.092;2023-03-03T09:21:29;43.70;;;20.47;;
3547;SDS011;1788;49.400;11.092;2023-03-03T09:23:57;37.57;;;19.30;;
3547;SDS011;1788;49.400;11.092;2023-03-03T09:28:49;40.27;;;20.07;;
3547;SDS011;1788;49.400;11.092;2023-03-03T09:33:43;41.93;;;21.07;;
3547;SDS011;1788;49.400;11.092;2023-03-03T09:38:35;51.10;;;23.93;;
3547;SDS011;1788;49.400;11.092;2023-03-03T09:41:07;37.73;;;19.53;;
3547;SDS011;1788;49.400;11.092;2023-03-03T09:43:35;37.37;;;20.13;;
3547;SDS011;1788;49.400;11.092;2023-03-03T09:48:25;34.03;;;19.00;;
3547;SDS011;1788;49.400;11.092;2023-03-03T09:50:54;39.17;;;19.53;;
3547;SDS011;1788;49.400;11.092;2023-03-03T09:55:47;44.10;;;20.43;;
3547;SDS011;1788;49.400;11.092;2023-03-03T10:00:40;36.97;;;19.37;;
3547;SDS011;1788;49.400;11.092;2023-03-03T10:15:25;36.30;;;17.97;;
3547;SDS011;1788;49.400;11.092;2023-03-03T10:30:06;27.93;;;17.13;;
3547;SDS011;1788;49.400;11.092;2023-03-03T10:32:29;28.67;;;16.87;;
3547;SDS011;1788;49.400;11.092;2023-03-03T10:44:42;32.57;;;16.93;;
3547;SDS011;1788;49.400;11.092;2023-03-03T10:47:11;33.53;;;15.73;;
3547;SDS011;1788;49.400;11.092;2023-03-03T10:54:42;25.97;;;13.57;;
3547;SDS011;1788;49.400;11.092;2023-03-03T11:01:52;30.93;;;16.77;;
3547;SDS011;1788;49.400;11.092;2023-03-03T11:11:38;36.10;;;18.67;;
3547;SDS011;1788;49.400;11.092;2023-03-03T11:18:58;36.93;;;19.63;;
3547;SDS011;1788;49.400;11.092;2023-03-03T11:31:12;34.40;;;18.33;;
3547;SDS011;1788;49.400;11.092;2023-03-03T11:36:08;32.40;;;17.67;;
3547;SDS011;1788;49.400;11.092;2023-03-03T11:45:53;37.17;;;18.77;;
3547;SDS011;1788;49.400;11.092;2023-03-03T11:50:48;34.50;;;19.03;;
3547;SDS011;1788;49.400;11.092;2023-03-03T11:55:40;34.60;;;18.07;;
3547;SDS011;1788;49.400;11.092;2023-03-03T12:07:57;24.00;;;13.13;;
3547;SDS011;1788;49.400;11.092;2023-03-03T12:27:28;27.83;;;16.17;;
3547;SDS011;1788;49.400;11.092;2023-03-03T12:44:35;17.93;;;12.13;;
3547;SDS011;1788;49.400;11.092;2023-03-03T13:04:12;25.23;;;15.67;;
3547;SDS011;1788;49.400;11.092;2023-03-03T13:14:01;25.40;;;15.83;;
3547;SDS011;1788;49.400;11.092;2023-03-03T13:16:26;26.07;;;16.67;;
3547;SDS011;1788;49.400;11.092;2023-03-03T13:28:39;25.50;;;14.70;;
3547;SDS011;1788;49.400;11.092;2023-03-03T13:38:27;22.00;;;14.30;;
3547;SDS011;1788;49.400;11.092;2023-03-03T13:40:55;23.23;;;14.60;;
3547;SDS011;1788;49.400;11.092;2023-03-03T13:55:35;18.57;;;12.87;;
3547;SDS011;1788;49.400;11.092;2023-03-03T14:05:25;23.03;;;14.13;;
3547;SDS011;1788;49.400;11.092;2023-03-03T14:07:51;20.60;;;13.17;;
3547;SDS011;1788;49.400;11.092;2023-03-03T14:12:46;26.97;;;14.93;;
3547;SDS011;1788;49.400;11.092;2023-03-03T14:15:14;22.97;;;13.13;;
3547;SDS011;1788;49.400;11.092;2023-03-03T14:27:27;21.57;;;12.77;;
3547;SDS011;1788;49.400;11.092;2023-03-03T14:29:52;20.37;;;11.67;;
3547;SDS011;1788;49.400;11.092;2023-03-03T14:34:46;17.17;;;11.63;;
3547;SDS011;1788;49.400;11.092;2023-03-03T14:39:41;15.17;;;10.83;;
3547;SDS011;1788;49.400;11.092;2023-03-03T14:44:35;18.20;;;10.77;;
3547;SDS011;1788;49.400;11.092;2023-03-03T14:47:04;19.40;;;11.37;;
3547;SDS011;1788;49.400;11.092;2023-03-03T14:49:29;20.20;;;11.77;;
3547;SDS011;1788;49.400;11.092;2023-03-03T14:52:00;19.70;;;11.63;;
3547;SDS011;1788;49.400;11.092;2023-03-03T14:54:25;17.73;;;12.00;;
3547;SDS011;1788;49.400;11.092;2023-03-03T14:59:17;19.57;;;11.87;;
3547;SDS011;1788;49.400;11.092;2023-03-03T15:01:43;20.20;;;11.97;;
3547;SDS011;1788;49.400;11.092;2023-03-03T15:11:32;18.03;;;12.60;;
3547;SDS011;1788;49.400;11.092;2023-03-03T15:16:29;22.57;;;13.17;;
3547;SDS011;1788;49.400;11.092;2023-03-03T15:21:21;20.63;;;13.20;;
3547;SDS011;1788;49.400;11.092;2023-03-03T15:26:17;21.57;;;12.70;;
3547;SDS011;1788;49.400;11.092;2023-03-03T15:36:03;22.43;;;12.40;;
3547;SDS011;1788;49.400;11.092;2023-03-03T15:40:58;18.73;;;11.37;;
3547;SDS011;1788;49.400;11.092;2023-03-03T15:43:23;19.80;;;11.63;;
3547;SDS011;1788;49.400;11.092;2023-03-03T15:45:52;15.87;;;10.70;;
3547;SDS011;1788;49.400;11.092;2023-03-03T16:17:41;20.63;;;11.50;;
3547;SDS011;1788;49.400;11.092;2023-03-03T17:04:11;19.90;;;11.07;;
3547;SDS011;1788;49.400;11.092;2023-03-03T17:21:27;12.83;;;7.50;;
3547;SDS011;1788;49.400;11.092;2023-03-03T17:28:40;16.00;;;8.47;;
3547;SDS011;1788;49.400;11.092;2023-03-03T17:45:45;14.80;;;8.23;;
3547;SDS011;1788;49.400;11.092;2023-03-03T17:48:16;15.47;;;8.70;;
3547;SDS011;1788;49.400;11.092;2023-03-03T18:07:49;13.53;;;6.10;;
3547;SDS011;1788;49.400;11.092;2023-03-03T18:24:52;13.00;;;7.67;;
3547;SDS011;1788;49.400;11.092;2023-03-03T18:34:39;11.40;;;6.87;;
3547;SDS011;1788;49.400;11.092;2023-03-03T18:46:53;12.43;;;8.43;;
3547;SDS011;1788;49.400;11.092;2023-03-03T18:49:47;14.07;;;8.00;;
3547;SDS011;1788;49.400;11.092;2023-03-03T18:51:47;15.03;;;7.87;;
3547;SDS011;1788;49.400;11.092;2023-03-03T18:59:07;27.63;;;14.07;;
3547;SDS011;1788;49.400;11.092;2023-03-03T19:01:34;15.43;;;9.57;;
3547;SDS011;1788;49.400;11.092;2023-03-03T19:04:03;11.90;;;7.67;;
3547;SDS011;1788;49.400;11.092;2023-03-03T19:08:53;13.10;;;7.60;;
3547;SDS011;1788;49.400;11.092;2023-03-03T19:13:47;11.00;;;6.97;;
3547;SDS011;1788;49.400;11.092;2023-03-03T19:33:24;15.00;;;9.00;;
3547;SDS011;1788;49.400;11.092;2023-03-03T19:50:30;13.40;;;8.00;;
3547;SDS011;1788;49.400;11.092;2023-03-03T19:52:58;14.23;;;9.23;;
3547;SDS011;1788;49.400;11.092;2023-03-03T19:55:22;13.00;;;7.90;;
3547;SDS011;1788;49.400;11.092;2023-03-03T20:00:21;13.07;;;8.47;;
3547;SDS011;1788;49.400;11.092;2023-03-03T20:24:49;12.10;;;7.10;;
3547;SDS011;1788;49.400;11.092;2023-03-03T20:27:13;12.20;;;8.13;;
3547;SDS011;1788;49.400;11.092;2023-03-03T20:32:06;13.60;;;8.70;;
3547;SDS011;1788;49.400;11.092;2023-03-03T21:01:27;12.33;;;8.43;;
3547;SDS011;1788;49.400;11.092;2023-03-03T21:03:51;14.77;;;9.47;;
3547;SDS011;1788;49.400;11.092;2023-03-03T21:06:18;19.00;;;10.17;;
3547;SDS011;1788;49.400;11.092;2023-03-03T21:08:45;11.43;;;8.07;;
3547;SDS011;1788;49.400;11.092;2023-03-03T21:11:12;13.07;;;9.27;;
3547;SDS011;1788;49.400;11.092;2023-03-03T21:13:39;16.43;;;9.00;;
3547;SDS011;1788;49.400;11.092;2023-03-03T21:16:08;11.63;;;8.10;;
3547;SDS011;1788;49.400;11.092;2023-03-03T21:18:32;11.57;;;8.60;;
3547;SDS011;1788;49.400;11.092;2023-03-03T21:20:59;12.73;;;8.83;;
3547;SDS011;1788;49.400;11.092;2023-03-03T21:23:26;14.67;;;8.27;;
3547;SDS011;1788;49.400;11.092;2023-03-03T21:25:53;13.47;;;8.93;;
3547;SDS011;1788;49.400;11.092;2023-03-03T21:28:21;14.43;;;8.57;;
3547;SDS011;1788;49.400;11.092;2023-03-03T21:33:36;17.60;;;8.83;;
3547;SDS011;1788;49.400;11.092;2023-03-03T21:35:55;14.40;;;7.83;;
3547;SDS011;1788;49.400;11.092;2023-03-03T21:38:08;16.20;;;8.80;;
3547;SDS011;1788;49.400;11.092;2023-03-03T21:40:35;18.00;;;8.90;;
3547;SDS011;1788;49.400;11.092;2023-03-03T21:43:01;13.67;;;9.17;;
3547;SDS011;1788;49.400;11.092;2023-03-03T21:45:30;13.43;;;7.90;;
3547;SDS011;1788;49.400;11.092;2023-03-03T21:47:56;18.67;;;10.17;;
3547;SDS011;1788;49.400;11.092;2023-03-03T21:50:23;19.07;;;9.97;;
3547;SDS011;1788;49.400;11.092;2023-03-03T21:52:49;15.70;;;9.97;;
3547;SDS011;1788;49.400;11.092;2023-03-03T21:55:16;18.83;;;10.27;;
3547;SDS011;1788;49.400;11.092;2023-03-03T21:57:43;21.37;;;10.70;;
3547;SDS011;1788;49.400;11.092;2023-03-03T22:00:09;17.13;;;10.20;;
3547;SDS011;1788;49.400;11.092;2023-03-03T22:02:36;16.53;;;9.47;;
3547;SDS011;1788;49.400;11.092;2023-03-03T22:05:03;14.87;;;8.70;;
3547;SDS011;1788;49.400;11.092;2023-03-03T22:07:29;13.60;;;8.60;;
3547;SDS011;1788;49.400;11.092;2023-03-03T22:09:56;17.13;;;10.47;;
3547;SDS011;1788;49.400;11.092;2023-03-03T22:12:22;13.93;;;9.90;;
3547;SDS011;1788;49.400;11.092;2023-03-03T22:14:49;18.47;;;10.13;;
3547;SDS011;1788;49.400;11.092;2023-03-03T22:17:16;20.00;;;9.90;;
3547;SDS011;1788;49.400;11.092;2023-03-03T22:19:43;19.30;;;10.67;;
3547;SDS011;1788;49.400;11.092;2023-03-03T22:22:10;18.83;;;10.73;;
3547;SDS011;1788;49.400;11.092;2023-03-03T22:24:37;19.93;;;11.03;;
3547;SDS011;1788;49.400;11.092;2023-03-03T22:27:04;19.17;;;10.50;;
3547;SDS011;1788;49.400;11.092;2023-03-03T22:29:30;16.70;;;9.47;;
3547;SDS011;1788;49.400;11.092;2023-03-03T22:31:57;21.67;;;10.07;;
3547;SDS011;1788;49.400;11.092;2023-03-03T22:34:24;16.50;;;9.97;;
3547;SDS011;1788;49.400;11.092;2023-03-03T22:36:51;16.60;;;9.77;;
3547;SDS011;1788;49.400;11.092;2023-03-03T22:39:18;13.80;;;9.80;;
3547;SDS011;1788;49.400;11.092;2023-03-03T22:41:45;17.73;;;9.30;;
3547;SDS011;1788;49.400;11.092;2023-03-03T22:44:12;17.03;;;10.10;;
3547;SDS011;1788;49.400;11.092;2023-03-03T22:46:38;19.00;;;9.87;;
3547;SDS011;1788;49.400;11.092;2023-03-03T22:49:05;18.83;;;10.10;;
3547;SDS011;1788;49.400;11.092;2023-03-03T22:51:31;17.00;;;9.93;;
3547;SDS011;1788;49.400;11.092;2023-03-03T22:53:58;15.97;;;9.77;;
3547;SDS011;1788;49.400;11.092;2023-03-03T22:56:25;18.53;;;10.07;;
3547;SDS011;1788;49.400;11.092;2023-03-03T22:58:51;18.83;;;10.77;;
3547;SDS011;1788;49.400;11.092;2023-03-03T23:01:18;23.73;;;11.00;;
3547;SDS011;1788;49.400;11.092;2023-03-03T23:03:45;19.57;;;10.20;;
3547;SDS011;1788;49.400;11.092;2023-03-03T23:06:12;18.03;;;9.70;;
3547;SDS011;1788;49.400;11.092;2023-03-03T23:08:39;16.57;;;10.10;;
3547;SDS011;1788;49.400;11.092;2023-03-03T23:11:06;18.23;;;11.03;;
3547;SDS011;1788;49.400;11.092;2023-03-03T23:13:33;23.17;;;11.23;;
3547;SDS011;1788;49.400;11.092;2023-03-03T23:16:00;23.27;;;12.00;;
3547;SDS011;1788;49.400;11.092;2023-03-03T23:18:27;20.40;;;11.00;;
3547;SDS011;1788;49.400;11.092;2023-03-03T23:20:54;20.63;;;10.57;;
3547;SDS011;1788;49.400;11.092;2023-03-03T23:23:21;19.73;;;11.17;;
3547;SDS011;1788;49.400;11.092;2023-03-03T23:25:48;17.50;;;11.13;;
3547;SDS011;1788;49.400;11.092;2023-03-03T23:28:22;22.43;;;11.10;;
3547;SDS011;1788;49.400;11.092;2023-03-03T23:30:50;21.77;;;11.53;;
3547;SDS011;1788;49.400;11.092;2023-03-03T23:33:17;22.90;;;11.07;;
3547;SDS011;1788;49.400;11.092;2023-03-03T23:35:44;22.37;;;11.10;;
3547;SDS011;1788;49.400;11.092;2023-03-03T23:38:11;23.43;;;11.73;;
3547;SDS011;1788;49.400;11.092;2023-03-03T23:40:38;19.83;;;10.33;;
3547;SDS011;1788;49.400;11.092;2023-03-03T23:43:05;13.23;;;8.50;;
3547;SDS011;1788;49.400;11.092;2023-03-03T23:45:32;19.13;;;10.43;;
3547;SDS011;1788;49.400;11.092;2023-03-03T23:47:59;17.67;;;10.13;;
3547;SDS011;1788;49.400;11.092;2023-03-03T23:50:27;19.97;;;11.40;;